sensor_id;sensor_type;location;lat;lon;timestamp;P1;durP1;ratioP1;P2;durP2;ratioP2
14276;SDS011;7222;57.346;12.150;2023-06-05T00:01:50;3.00;;;2.10;;
14276;SDS011;7222;57.346;12.150;2023-06-05T00:04:18;2.53;;;2.30;;
14276;SDS011;7222;57.346;12.150;2023-06-05T00:06:45;2.43;;;2.23;;
14276;SDS011;7222;57.346;12.150;2023-06-05T00:09:12;2.30;;;2.03;;
14276;SDS011;7222;57.346;12.150;2023-06-05T00:11:40;2.20;;;2.10;;
14276;SDS011;7222;57.346;12.150;2023-06-05T00:14:06;2.50;;;2.30;;
14276;SDS011;7222;57.346;12.150;2023-06-05T00:16:33;2.33;;;2.00;;
14276;SDS011;7222;57.346;12.150;2023-06-05T00:19:01;2.77;;;2.17;;
14276;SDS011;7222;57.346;12.150;2023-06-05T00:21:30;2.43;;;2.23;;
14276;SDS011;7222;57.346;12.150;2023-06-05T00:23:56;2.23;;;2.03;;
14276;SDS011;7222;57.346;12.150;2023-06-05T00:26:23;2.30;;;2.17;;
14276;SDS011;7222;57.346;12.150;2023-06-05T00:28:51;3.03;;;2.47;;
14276;SDS011;7222;57.346;12.150;2023-06-05T00:31:18;2.00;;;1.90;;
14276;SDS011;7222;57.346;12.150;2023-06-05T00:33:46;2.00;;;1.80;;
14276;SDS011;7222;57.346;12.150;2023-06-05T00:36:13;2.63;;;2.00;;
14276;SDS011;7222;57.346;12.150;2023-06-05T00:38:42;2.43;;;2.23;;
14276;SDS011;7222;57.346;12.150;2023-06-05T00:41:08;2.77;;;2.20;;
14276;SDS011;7222;57.346;12.150;2023-06-05T00:43:35;2.43;;;2.00;;
14276;SDS011;7222;57.346;12.150;2023-06-05T00:46:03;2.30;;;2.10;;
14276;SDS011;7222;57.346;12.150;2023-06-05T00:48:30;2.23;;;2.00;;
14276;SDS011;7222;57.346;12.150;2023-06-05T00:50:59;3.00;;;2.00;;
14276;SDS011;7222;57.346;12.150;2023-06-05T00:53:26;2.40;;;2.10;;
14276;SDS011;7222;57.346;12.150;2023-06-05T00:55:56;1.93;;;1.83;;
14276;SDS011;7222;57.346;12.150;2023-06-05T00:58:24;2.37;;;2.17;;
14276;SDS011;7222;57.346;12.150;2023-06-05T01:00:52;2.20;;;2.10;;
14276;SDS011;7222;57.346;12.150;2023-06-05T01:03:20;2.20;;;2.00;;
14276;SDS011;7222;57.346;12.150;2023-06-05T01:05:47;2.40;;;2.10;;
14276;SDS011;7222;57.346;12.150;2023-06-05T01:08:14;1.90;;;1.80;;
14276;SDS011;7222;57.346;12.150;2023-06-05T01:10:46;2.60;;;1.97;;
14276;SDS011;7222;57.346;12.150;2023-06-05T01:13:17;2.33;;;2.10;;
14276;SDS011;7222;57.346;12.150;2023-06-05T01:15:50;2.20;;;2.00;;
14276;SDS011;7222;57.346;12.150;2023-06-05T01:18:17;2.43;;;1.90;;
14276;SDS011;7222;57.346;12.150;2023-06-05T01:20:45;2.03;;;1.90;;
14276;SDS011;7222;57.346;12.150;2023-06-05T01:23:13;2.23;;;2.13;;
14276;SDS011;7222;57.346;12.150;2023-06-05T01:25:40;2.50;;;1.97;;
14276;SDS011;7222;57.346;12.150;2023-06-05T01:28:08;2.67;;;2.40;;
14276;SDS011;7222;57.346;12.150;2023-06-05T01:30:43;2.50;;;2.30;;
14276;SDS011;7222;57.346;12.150;2023-06-05T01:33:19;2.67;;;1.90;;
14276;SDS011;7222;57.346;12.150;2023-06-05T01:35:53;2.30;;;2.10;;
14276;SDS011;7222;57.346;12.150;2023-06-05T01:38:22;2.20;;;2.00;;
14276;SDS011;7222;57.346;12.150;2023-06-05T01:40:50;2.20;;;2.00;;
14276;SDS011;7222;57.346;12.150;2023-06-05T01:43:18;2.80;;;2.13;;
14276;SDS011;7222;57.346;12.150;2023-06-05T01:45:45;2.43;;;2.23;;
14276;SDS011;7222;57.346;12.150;2023-06-05T01:48:13;2.27;;;2.07;;
14276;SDS011;7222;57.346;12.150;2023-06-05T01:50:41;2.60;;;2.40;;
14276;SDS011;7222;57.346;12.150;2023-06-05T01:53:08;3.10;;;2.77;;
14276;SDS011;7222;57.346;12.150;2023-06-05T01:55:38;2.53;;;2.20;;
14276;SDS011;7222;57.346;12.150;2023-06-05T01:58:06;2.80;;;2.10;;
14276;SDS011;7222;57.346;12.150;2023-06-05T02:00:33;3.23;;;2.10;;
14276;SDS011;7222;57.346;12.150;2023-06-05T02:03:02;2.70;;;2.50;;
14276;SDS011;7222;57.346;12.150;2023-06-05T02:05:29;2.57;;;2.13;;
14276;SDS011;7222;57.346;12.150;2023-06-05T02:07:58;2.50;;;2.27;;
14276;SDS011;7222;57.346;12.150;2023-06-05T02:10:30;2.70;;;2.50;;
14276;SDS011;7222;57.346;12.150;2023-06-05T02:12:59;3.10;;;2.27;;
14276;SDS011;7222;57.346;12.150;2023-06-05T02:15:26;2.20;;;2.00;;
14276;SDS011;7222;57.346;12.150;2023-06-05T02:17:57;2.40;;;2.20;;
14276;SDS011;7222;57.346;12.150;2023-06-05T02:20:24;2.00;;;1.80;;
14276;SDS011;7222;57.346;12.150;2023-06-05T02:22:51;2.40;;;2.20;;
14276;SDS011;7222;57.346;12.150;2023-06-05T02:25:19;2.50;;;2.03;;
14276;SDS011;7222;57.346;12.150;2023-06-05T02:27:51;2.70;;;2.50;;
14276;SDS011;7222;57.346;12.150;2023-06-05T02:30:19;3.07;;;2.40;;
14276;SDS011;7222;57.346;12.150;2023-06-05T02:32:46;2.40;;;2.20;;
14276;SDS011;7222;57.346;12.150;2023-06-05T02:35:13;2.87;;;2.27;;
14276;SDS011;7222;57.346;12.150;2023-06-05T02:37:40;2.70;;;2.50;;
14276;SDS011;7222;57.346;12.150;2023-06-05T02:40:08;2.67;;;2.23;;
14276;SDS011;7222;57.346;12.150;2023-06-05T02:42:37;2.03;;;1.93;;
14276;SDS011;7222;57.346;12.150;2023-06-05T02:45:05;4.07;;;2.67;;
14276;SDS011;7222;57.346;12.150;2023-06-05T02:47:36;2.47;;;2.27;;
14276;SDS011;7222;57.346;12.150;2023-06-05T02:50:03;3.13;;;2.37;;
14276;SDS011;7222;57.346;12.150;2023-06-05T02:52:30;2.33;;;2.13;;
14276;SDS011;7222;57.346;12.150;2023-06-05T02:54:59;2.50;;;2.30;;
14276;SDS011;7222;57.346;12.150;2023-06-05T02:57:30;2.80;;;2.60;;
14276;SDS011;7222;57.346;12.150;2023-06-05T02:59:58;3.00;;;2.37;;
14276;SDS011;7222;57.346;12.150;2023-06-05T03:02:27;2.90;;;2.60;;
14276;SDS011;7222;57.346;12.150;2023-06-05T03:04:56;2.43;;;2.17;;
14276;SDS011;7222;57.346;12.150;2023-06-05T03:07:22;2.60;;;2.40;;
14276;SDS011;7222;57.346;12.150;2023-06-05T03:09:49;3.40;;;2.50;;
14276;SDS011;7222;57.346;12.150;2023-06-05T03:12:16;2.73;;;2.47;;
14276;SDS011;7222;57.346;12.150;2023-06-05T03:14:43;2.43;;;2.23;;
14276;SDS011;7222;57.346;12.150;2023-06-05T03:17:10;2.43;;;2.23;;
14276;SDS011;7222;57.346;12.150;2023-06-05T03:19:37;2.60;;;2.40;;
14276;SDS011;7222;57.346;12.150;2023-06-05T03:22:05;2.37;;;2.17;;
14276;SDS011;7222;57.346;12.150;2023-06-05T03:24:32;3.13;;;2.37;;
14276;SDS011;7222;57.346;12.150;2023-06-05T03:27:02;3.23;;;2.47;;
14276;SDS011;7222;57.346;12.150;2023-06-05T03:29:30;3.07;;;2.23;;
14276;SDS011;7222;57.346;12.150;2023-06-05T03:31:57;3.43;;;2.50;;
14276;SDS011;7222;57.346;12.150;2023-06-05T03:34:24;2.87;;;2.60;;
14276;SDS011;7222;57.346;12.150;2023-06-05T03:36:51;2.63;;;2.37;;
14276;SDS011;7222;57.346;12.150;2023-06-05T03:39:19;2.17;;;2.03;;
14276;SDS011;7222;57.346;12.150;2023-06-05T03:41:46;2.27;;;2.10;;
14276;SDS011;7222;57.346;12.150;2023-06-05T03:44:13;2.40;;;2.20;;
14276;SDS011;7222;57.346;12.150;2023-06-05T03:46:40;4.43;;;2.87;;
14276;SDS011;7222;57.346;12.150;2023-06-05T03:49:07;2.83;;;2.60;;
14276;SDS011;7222;57.346;12.150;2023-06-05T03:51:34;3.40;;;3.10;;
14276;SDS011;7222;57.346;12.150;2023-06-05T03:54:01;3.63;;;2.80;;
14276;SDS011;7222;57.346;12.150;2023-06-05T03:56:31;3.07;;;2.77;;
14276;SDS011;7222;57.346;12.150;2023-06-05T03:58:59;4.03;;;3.73;;
14276;SDS011;7222;57.346;12.150;2023-06-05T04:01:34;3.17;;;2.87;;
14276;SDS011;7222;57.346;12.150;2023-06-05T04:04:02;3.97;;;3.53;;
14276;SDS011;7222;57.346;12.150;2023-06-05T04:06:30;4.13;;;3.20;;
14276;SDS011;7222;57.346;12.150;2023-06-05T04:08:58;4.57;;;3.37;;
14276;SDS011;7222;57.346;12.150;2023-06-05T04:11:25;4.63;;;3.73;;
14276;SDS011;7222;57.346;12.150;2023-06-05T04:13:54;4.47;;;3.60;;
14276;SDS011;7222;57.346;12.150;2023-06-05T04:16:20;4.03;;;3.57;;
14276;SDS011;7222;57.346;12.150;2023-06-05T04:18:48;4.03;;;3.63;;
14276;SDS011;7222;57.346;12.150;2023-06-05T04:21:15;5.17;;;4.10;;
14276;SDS011;7222;57.346;12.150;2023-06-05T04:23:41;3.67;;;3.37;;
14276;SDS011;7222;57.346;12.150;2023-06-05T04:26:09;4.43;;;4.00;;
14276;SDS011;7222;57.346;12.150;2023-06-05T04:28:36;4.80;;;4.07;;
14276;SDS011;7222;57.346;12.150;2023-06-05T04:31:04;4.77;;;4.37;;
14276;SDS011;7222;57.346;12.150;2023-06-05T04:33:31;5.67;;;4.90;;
14276;SDS011;7222;57.346;12.150;2023-06-05T04:35:58;9.67;;;5.33;;
14276;SDS011;7222;57.346;12.150;2023-06-05T04:38:25;12.60;;;9.03;;
14276;SDS011;7222;57.346;12.150;2023-06-05T04:40:53;7.37;;;6.13;;
14276;SDS011;7222;57.346;12.150;2023-06-05T04:43:20;9.10;;;6.40;;
14276;SDS011;7222;57.346;12.150;2023-06-05T04:45:48;7.60;;;5.30;;
14276;SDS011;7222;57.346;12.150;2023-06-05T04:48:16;9.00;;;6.07;;
14276;SDS011;7222;57.346;12.150;2023-06-05T04:50:43;12.67;;;6.93;;
14276;SDS011;7222;57.346;12.150;2023-06-05T04:53:10;14.70;;;7.47;;
14276;SDS011;7222;57.346;12.150;2023-06-05T04:55:37;24.27;;;9.83;;
14276;SDS011;7222;57.346;12.150;2023-06-05T04:58:04;19.40;;;11.27;;
14276;SDS011;7222;57.346;12.150;2023-06-05T05:00:31;24.40;;;11.57;;
14276;SDS011;7222;57.346;12.150;2023-06-05T05:02:59;54.03;;;15.63;;
14276;SDS011;7222;57.346;12.150;2023-06-05T05:05:29;40.53;;;14.60;;
14276;SDS011;7222;57.346;12.150;2023-06-05T05:07:56;50.07;;;16.90;;
14276;SDS011;7222;57.346;12.150;2023-06-05T05:10:23;50.23;;;17.97;;
14276;SDS011;7222;57.346;12.150;2023-06-05T05:12:50;56.20;;;19.43;;
14276;SDS011;7222;57.346;12.150;2023-06-05T05:15:17;35.10;;;18.23;;
14276;SDS011;7222;57.346;12.150;2023-06-05T05:17:45;56.50;;;19.43;;
14276;SDS011;7222;57.346;12.150;2023-06-05T05:20:12;41.43;;;18.57;;
14276;SDS011;7222;57.346;12.150;2023-06-05T05:22:40;57.73;;;21.03;;
14276;SDS011;7222;57.346;12.150;2023-06-05T05:25:07;51.40;;;22.07;;
14276;SDS011;7222;57.346;12.150;2023-06-05T05:27:35;48.50;;;21.40;;
14276;SDS011;7222;57.346;12.150;2023-06-05T05:30:02;48.87;;;20.60;;
14276;SDS011;7222;57.346;12.150;2023-06-05T05:32:29;46.60;;;22.07;;
14276;SDS011;7222;57.346;12.150;2023-06-05T05:34:56;50.87;;;23.10;;
14276;SDS011;7222;57.346;12.150;2023-06-05T05:37:23;60.43;;;24.53;;
14276;SDS011;7222;57.346;12.150;2023-06-05T05:39:52;45.37;;;23.43;;
14276;SDS011;7222;57.346;12.150;2023-06-05T05:42:19;41.33;;;19.67;;
14276;SDS011;7222;57.346;12.150;2023-06-05T05:44:46;29.10;;;17.40;;
14276;SDS011;7222;57.346;12.150;2023-06-05T05:47:13;27.73;;;17.37;;
14276;SDS011;7222;57.346;12.150;2023-06-05T05:49:40;33.30;;;19.47;;
14276;SDS011;7222;57.346;12.150;2023-06-05T05:52:07;43.00;;;21.63;;
14276;SDS011;7222;57.346;12.150;2023-06-05T05:54:35;34.70;;;18.37;;
14276;SDS011;7222;57.346;12.150;2023-06-05T05:57:03;39.10;;;22.63;;
14276;SDS011;7222;57.346;12.150;2023-06-05T05:59:32;32.23;;;19.20;;
14276;SDS011;7222;57.346;12.150;2023-06-05T06:01:59;32.90;;;19.67;;
14276;SDS011;7222;57.346;12.150;2023-06-05T06:04:26;32.33;;;17.63;;
14276;SDS011;7222;57.346;12.150;2023-06-05T06:06:54;25.90;;;16.10;;
14276;SDS011;7222;57.346;12.150;2023-06-05T06:09:21;31.10;;;16.33;;
14276;SDS011;7222;57.346;12.150;2023-06-05T06:11:50;19.73;;;14.83;;
14276;SDS011;7222;57.346;12.150;2023-06-05T06:14:21;26.07;;;14.47;;
14276;SDS011;7222;57.346;12.150;2023-06-05T06:16:48;17.73;;;11.30;;
14276;SDS011;7222;57.346;12.150;2023-06-05T06:19:16;19.27;;;11.87;;
14276;SDS011;7222;57.346;12.150;2023-06-05T06:21:48;11.80;;;7.83;;
14276;SDS011;7222;57.346;12.150;2023-06-05T06:24:15;16.00;;;9.87;;
14276;SDS011;7222;57.346;12.150;2023-06-05T06:26:45;12.10;;;7.63;;
14276;SDS011;7222;57.346;12.150;2023-06-05T06:29:13;15.03;;;8.50;;
14276;SDS011;7222;57.346;12.150;2023-06-05T06:31:42;12.70;;;9.20;;
14276;SDS011;7222;57.346;12.150;2023-06-05T06:34:10;13.77;;;9.73;;
14276;SDS011;7222;57.346;12.150;2023-06-05T06:36:37;13.87;;;7.83;;
14276;SDS011;7222;57.346;12.150;2023-06-05T06:39:05;10.43;;;6.90;;
14276;SDS011;7222;57.346;12.150;2023-06-05T06:41:33;11.57;;;9.17;;
14276;SDS011;7222;57.346;12.150;2023-06-05T06:44:00;13.07;;;8.77;;
14276;SDS011;7222;57.346;12.150;2023-06-05T06:46:27;16.13;;;9.80;;
14276;SDS011;7222;57.346;12.150;2023-06-05T06:49:00;14.60;;;8.27;;
14276;SDS011;7222;57.346;12.150;2023-06-05T06:51:27;12.40;;;8.27;;
14276;SDS011;7222;57.346;12.150;2023-06-05T06:53:54;12.70;;;9.37;;
14276;SDS011;7222;57.346;12.150;2023-06-05T06:56:22;13.10;;;9.00;;
14276;SDS011;7222;57.346;12.150;2023-06-05T06:58:50;12.60;;;9.17;;
14276;SDS011;7222;57.346;12.150;2023-06-05T07:01:19;11.43;;;8.97;;
14276;SDS011;7222;57.346;12.150;2023-06-05T07:03:46;8.60;;;6.87;;
14276;SDS011;7222;57.346;12.150;2023-06-05T07:06:15;13.07;;;7.67;;
14276;SDS011;7222;57.346;12.150;2023-06-05T07:08:42;11.40;;;7.73;;
14276;SDS011;7222;57.346;12.150;2023-06-05T07:11:09;11.20;;;7.83;;
14276;SDS011;7222;57.346;12.150;2023-06-05T07:13:37;8.73;;;6.80;;
14276;SDS011;7222;57.346;12.150;2023-06-05T07:16:04;12.93;;;7.57;;
14276;SDS011;7222;57.346;12.150;2023-06-05T07:18:31;11.37;;;7.50;;
14276;SDS011;7222;57.346;12.150;2023-06-05T07:20:59;9.07;;;6.80;;
14276;SDS011;7222;57.346;12.150;2023-06-05T07:23:27;12.23;;;7.07;;
14276;SDS011;7222;57.346;12.150;2023-06-05T07:25:54;8.53;;;7.47;;
14276;SDS011;7222;57.346;12.150;2023-06-05T07:28:22;12.47;;;7.50;;
14276;SDS011;7222;57.346;12.150;2023-06-05T07:30:49;9.13;;;6.23;;
14276;SDS011;7222;57.346;12.150;2023-06-05T07:33:16;10.73;;;6.50;;
14276;SDS011;7222;57.346;12.150;2023-06-05T07:35:45;12.47;;;7.87;;
14276;SDS011;7222;57.346;12.150;2023-06-05T07:38:13;13.90;;;7.87;;
14276;SDS011;7222;57.346;12.150;2023-06-05T07:40:42;7.23;;;5.57;;
14276;SDS011;7222;57.346;12.150;2023-06-05T07:43:09;10.70;;;7.03;;
14276;SDS011;7222;57.346;12.150;2023-06-05T07:45:39;10.93;;;7.83;;
14276;SDS011;7222;57.346;12.150;2023-06-05T07:48:06;10.73;;;7.37;;
14276;SDS011;7222;57.346;12.150;2023-06-05T07:50:33;10.47;;;7.93;;
14276;SDS011;7222;57.346;12.150;2023-06-05T07:53:01;10.27;;;6.67;;
14276;SDS011;7222;57.346;12.150;2023-06-05T07:55:28;15.60;;;9.40;;
14276;SDS011;7222;57.346;12.150;2023-06-05T07:57:56;13.63;;;7.77;;
14276;SDS011;7222;57.346;12.150;2023-06-05T08:00:25;15.53;;;9.13;;
14276;SDS011;7222;57.346;12.150;2023-06-05T08:02:52;12.50;;;8.27;;
14276;SDS011;7222;57.346;12.150;2023-06-05T08:05:19;13.00;;;9.40;;
14276;SDS011;7222;57.346;12.150;2023-06-05T08:07:46;14.20;;;9.10;;
14276;SDS011;7222;57.346;12.150;2023-06-05T08:10:13;11.47;;;7.87;;
14276;SDS011;7222;57.346;12.150;2023-06-05T08:12:40;12.23;;;8.30;;
14276;SDS011;7222;57.346;12.150;2023-06-05T08:15:09;14.37;;;10.00;;
14276;SDS011;7222;57.346;12.150;2023-06-05T08:17:36;10.33;;;7.67;;
14276;SDS011;7222;57.346;12.150;2023-06-05T08:20:04;11.43;;;8.70;;
14276;SDS011;7222;57.346;12.150;2023-06-05T08:22:32;9.37;;;6.90;;
14276;SDS011;7222;57.346;12.150;2023-06-05T08:24:59;12.87;;;8.30;;
14276;SDS011;7222;57.346;12.150;2023-06-05T08:27:26;14.90;;;8.57;;
14276;SDS011;7222;57.346;12.150;2023-06-05T08:29:53;10.83;;;6.67;;
14276;SDS011;7222;57.346;12.150;2023-06-05T08:32:21;15.70;;;8.73;;
14276;SDS011;7222;57.346;12.150;2023-06-05T08:34:48;12.37;;;7.87;;
14276;SDS011;7222;57.346;12.150;2023-06-05T08:37:15;12.67;;;8.47;;
14276;SDS011;7222;57.346;12.150;2023-06-05T08:39:42;13.37;;;8.63;;
14276;SDS011;7222;57.346;12.150;2023-06-05T08:42:09;14.73;;;9.50;;
14276;SDS011;7222;57.346;12.150;2023-06-05T08:44:37;11.60;;;7.83;;
14276;SDS011;7222;57.346;12.150;2023-06-05T08:47:04;14.37;;;8.77;;
14276;SDS011;7222;57.346;12.150;2023-06-05T08:49:35;11.47;;;7.60;;
14276;SDS011;7222;57.346;12.150;2023-06-05T08:52:07;18.97;;;10.37;;
14276;SDS011;7222;57.346;12.150;2023-06-05T08:54:36;13.03;;;10.10;;
14276;SDS011;7222;57.346;12.150;2023-06-05T08:57:06;12.83;;;10.87;;
14276;SDS011;7222;57.346;12.150;2023-06-05T08:59:34;14.77;;;10.40;;
14276;SDS011;7222;57.346;12.150;2023-06-05T09:02:01;16.07;;;10.33;;
14276;SDS011;7222;57.346;12.150;2023-06-05T09:04:28;13.63;;;11.20;;
14276;SDS011;7222;57.346;12.150;2023-06-05T09:06:58;13.70;;;11.97;;
14276;SDS011;7222;57.346;12.150;2023-06-05T09:09:25;14.33;;;12.00;;
14276;SDS011;7222;57.346;12.150;2023-06-05T09:12:02;11.63;;;10.43;;
14276;SDS011;7222;57.346;12.150;2023-06-05T09:14:29;11.03;;;9.90;;
14276;SDS011;7222;57.346;12.150;2023-06-05T09:16:57;16.63;;;12.60;;
14276;SDS011;7222;57.346;12.150;2023-06-05T09:19:25;13.27;;;10.07;;
14276;SDS011;7222;57.346;12.150;2023-06-05T09:22:05;10.43;;;8.97;;
14276;SDS011;7222;57.346;12.150;2023-06-05T09:24:33;12.33;;;11.03;;
14276;SDS011;7222;57.346;12.150;2023-06-05T09:27:01;12.00;;;10.80;;
14276;SDS011;7222;57.346;12.150;2023-06-05T09:29:31;12.63;;;11.33;;
14276;SDS011;7222;57.346;12.150;2023-06-05T09:31:59;12.67;;;10.77;;
14276;SDS011;7222;57.346;12.150;2023-06-05T09:34:27;13.07;;;11.13;;
14276;SDS011;7222;57.346;12.150;2023-06-05T09:36:56;11.40;;;9.97;;
14276;SDS011;7222;57.346;12.150;2023-06-05T09:39:25;11.23;;;9.00;;
14276;SDS011;7222;57.346;12.150;2023-06-05T09:41:53;12.13;;;10.80;;
14276;SDS011;7222;57.346;12.150;2023-06-05T09:44:21;12.90;;;11.13;;
14276;SDS011;7222;57.346;12.150;2023-06-05T09:46:50;8.47;;;7.73;;
14276;SDS011;7222;57.346;12.150;2023-06-05T09:49:19;10.53;;;9.53;;
14276;SDS011;7222;57.346;12.150;2023-06-05T09:51:46;10.53;;;9.50;;
14276;SDS011;7222;57.346;12.150;2023-06-05T09:54:14;9.53;;;8.73;;
14276;SDS011;7222;57.346;12.150;2023-06-05T09:56:46;8.60;;;7.80;;
14276;SDS011;7222;57.346;12.150;2023-06-05T09:59:17;8.07;;;7.27;;
14276;SDS011;7222;57.346;12.150;2023-06-05T10:01:49;9.23;;;8.43;;
14276;SDS011;7222;57.346;12.150;2023-06-05T10:04:19;11.63;;;9.80;;
14276;SDS011;7222;57.346;12.150;2023-06-05T10:06:48;11.17;;;10.13;;
14276;SDS011;7222;57.346;12.150;2023-06-05T10:09:16;9.53;;;8.63;;
14276;SDS011;7222;57.346;12.150;2023-06-05T10:11:48;9.60;;;7.80;;
14276;SDS011;7222;57.346;12.150;2023-06-05T10:14:16;9.50;;;8.50;;
14276;SDS011;7222;57.346;12.150;2023-06-05T10:16:44;8.47;;;7.77;;
14276;SDS011;7222;57.346;12.150;2023-06-05T10:19:14;7.43;;;6.80;;
14276;SDS011;7222;57.346;12.150;2023-06-05T10:21:43;10.77;;;9.77;;
14276;SDS011;7222;57.346;12.150;2023-06-05T10:24:13;11.07;;;9.97;;
14276;SDS011;7222;57.346;12.150;2023-06-05T10:30:04;13.57;;;12.30;;
14276;SDS011;7222;57.346;12.150;2023-06-05T10:32:54;9.93;;;8.93;;
14276;SDS011;7222;57.346;12.150;2023-06-05T10:35:38;11.23;;;10.33;;
14276;SDS011;7222;57.346;12.150;2023-06-05T10:38:15;10.30;;;9.33;;
14276;SDS011;7222;57.346;12.150;2023-06-05T10:40:44;10.10;;;9.20;;
14276;SDS011;7222;57.346;12.150;2023-06-05T10:45:58;9.07;;;8.17;;
14276;SDS011;7222;57.346;12.150;2023-06-05T10:51:38;8.57;;;7.70;;
14276;SDS011;7222;57.346;12.150;2023-06-05T10:54:08;9.68;;;8.75;;
14276;SDS011;7222;57.346;12.150;2023-06-05T10:56:58;8.65;;;7.47;;
14276;SDS011;7222;57.346;12.150;2023-06-05T10:59:28;8.75;;;6.72;;
14276;SDS011;7222;57.346;12.150;2023-06-05T11:05:08;6.00;;;5.40;;
14276;SDS011;7222;57.346;12.150;2023-06-05T11:07:40;6.70;;;4.03;;
14276;SDS011;7222;57.346;12.150;2023-06-05T11:10:11;5.75;;;5.25;;
14276;SDS011;7222;57.346;12.150;2023-06-05T11:12:59;6.72;;;6.13;;
14276;SDS011;7222;57.346;12.150;2023-06-05T11:15:35;5.53;;;5.00;;
14276;SDS011;7222;57.346;12.150;2023-06-05T11:20:58;8.45;;;7.65;;
14276;SDS011;7222;57.346;12.150;2023-06-05T11:23:26;8.27;;;7.57;;
14276;SDS011;7222;57.346;12.150;2023-06-05T11:25:54;10.00;;;9.15;;
14276;SDS011;7222;57.346;12.150;2023-06-05T11:28:53;9.68;;;8.88;;
14276;SDS011;7222;57.346;12.150;2023-06-05T11:31:28;8.77;;;7.97;;
14276;SDS011;7222;57.346;12.150;2023-06-05T11:33:58;10.57;;;9.77;;
14276;SDS011;7222;57.346;12.150;2023-06-05T11:36:25;9.23;;;8.52;;
14276;SDS011;7222;57.346;12.150;2023-06-05T11:38:52;9.73;;;8.82;;
14276;SDS011;7222;57.346;12.150;2023-06-05T11:41:21;7.90;;;7.32;;
14276;SDS011;7222;57.346;12.150;2023-06-05T11:43:49;11.95;;;10.95;;
14276;SDS011;7222;57.346;12.150;2023-06-05T11:46:16;12.18;;;10.98;;
14276;SDS011;7222;57.346;12.150;2023-06-05T11:48:45;10.90;;;9.80;;
14276;SDS011;7222;57.346;12.150;2023-06-05T11:51:12;12.50;;;11.30;;
14276;SDS011;7222;57.346;12.150;2023-06-05T11:53:43;16.13;;;14.73;;
14276;SDS011;7222;57.346;12.150;2023-06-05T11:56:13;13.40;;;12.10;;
14276;SDS011;7222;57.346;12.150;2023-06-05T11:58:42;12.90;;;11.70;;
14276;SDS011;7222;57.346;12.150;2023-06-05T12:01:09;16.98;;;15.35;;
14276;SDS011;7222;57.346;12.150;2023-06-05T12:03:40;14.73;;;13.32;;
14276;SDS011;7222;57.346;12.150;2023-06-05T12:06:08;19.85;;;17.92;;
14276;SDS011;7222;57.346;12.150;2023-06-05T12:08:37;13.50;;;12.10;;
14276;SDS011;7222;57.346;12.150;2023-06-05T12:11:18;15.77;;;14.25;;
14276;SDS011;7222;57.346;12.150;2023-06-05T12:13:47;18.10;;;16.17;;
14276;SDS011;7222;57.346;12.150;2023-06-05T12:16:15;11.85;;;10.65;;
14276;SDS011;7222;57.346;12.150;2023-06-05T12:18:43;14.15;;;12.75;;
14276;SDS011;7222;57.346;12.150;2023-06-05T12:21:20;14.57;;;13.20;;
14276;SDS011;7222;57.346;12.150;2023-06-05T12:23:51;15.68;;;14.07;;
14276;SDS011;7222;57.346;12.150;2023-06-05T12:26:26;16.90;;;15.05;;
14276;SDS011;7222;57.346;12.150;2023-06-05T12:29:01;9.73;;;8.82;;
14276;SDS011;7222;57.346;12.150;2023-06-05T12:31:33;14.02;;;12.63;;
14276;SDS011;7222;57.346;12.150;2023-06-05T12:34:04;15.93;;;14.30;;
14276;SDS011;7222;57.346;12.150;2023-06-05T12:36:33;17.67;;;15.80;;
14276;SDS011;7222;57.346;12.150;2023-06-05T12:39:04;15.57;;;13.93;;
14276;SDS011;7222;57.346;12.150;2023-06-05T12:41:32;13.15;;;11.60;;
14276;SDS011;7222;57.346;12.150;2023-06-05T12:43:59;12.77;;;11.57;;
14276;SDS011;7222;57.346;12.150;2023-06-05T12:46:29;13.35;;;12.05;;
14276;SDS011;7222;57.346;12.150;2023-06-05T12:48:56;13.25;;;11.43;;
14276;SDS011;7222;57.346;12.150;2023-06-05T12:51:23;14.13;;;12.07;;
14276;SDS011;7222;57.346;12.150;2023-06-05T12:53:52;10.73;;;9.63;;
14276;SDS011;7222;57.346;12.150;2023-06-05T12:56:19;15.32;;;13.75;;
14276;SDS011;7222;57.346;12.150;2023-06-05T12:58:49;15.30;;;13.68;;
14276;SDS011;7222;57.346;12.150;2023-06-05T13:01:17;14.48;;;13.02;;
14276;SDS011;7222;57.346;12.150;2023-06-05T13:03:44;10.95;;;9.85;;
14276;SDS011;7222;57.346;12.150;2023-06-05T13:06:12;15.40;;;13.68;;
14276;SDS011;7222;57.346;12.150;2023-06-05T13:08:39;13.27;;;12.02;;
14276;SDS011;7222;57.346;12.150;2023-06-05T13:11:07;14.65;;;13.02;;
14276;SDS011;7222;57.346;12.150;2023-06-05T13:13:35;18.13;;;16.27;;
14276;SDS011;7222;57.346;12.150;2023-06-05T13:16:02;12.98;;;11.57;;
14276;SDS011;7222;57.346;12.150;2023-06-05T13:18:32;13.85;;;12.07;;
14276;SDS011;7222;57.346;12.150;2023-06-05T13:21:00;14.23;;;12.82;;
14276;SDS011;7222;57.346;12.150;2023-06-05T13:23:27;15.70;;;14.18;;
14276;SDS011;7222;57.346;12.150;2023-06-05T13:25:54;15.57;;;14.02;;
14276;SDS011;7222;57.346;12.150;2023-06-05T13:28:22;13.43;;;12.13;;
14276;SDS011;7222;57.346;12.150;2023-06-05T13:30:50;13.10;;;11.85;;
14276;SDS011;7222;57.346;12.150;2023-06-05T13:33:18;12.68;;;11.35;;
14276;SDS011;7222;57.346;12.150;2023-06-05T13:35:45;11.77;;;10.60;;
14276;SDS011;7222;57.346;12.150;2023-06-05T13:38:12;13.30;;;12.02;;
14276;SDS011;7222;57.346;12.150;2023-06-05T13:40:39;10.13;;;9.25;;
14276;SDS011;7222;57.346;12.150;2023-06-05T13:43:12;9.25;;;8.10;;
14276;SDS011;7222;57.346;12.150;2023-06-05T13:45:40;11.45;;;10.38;;
14276;SDS011;7222;57.346;12.150;2023-06-05T13:48:07;12.68;;;11.48;;
14276;SDS011;7222;57.346;12.150;2023-06-05T13:50:34;11.93;;;10.82;;
14276;SDS011;7222;57.346;12.150;2023-06-05T13:53:01;9.27;;;8.35;;
14276;SDS011;7222;57.346;12.150;2023-06-05T13:55:28;8.75;;;7.95;;
14276;SDS011;7222;57.346;12.150;2023-06-05T13:57:55;8.48;;;7.15;;
14276;SDS011;7222;57.346;12.150;2023-06-05T14:00:25;10.02;;;9.02;;
14276;SDS011;7222;57.346;12.150;2023-06-05T14:02:54;9.98;;;8.98;;
14276;SDS011;7222;57.346;12.150;2023-06-05T14:05:21;6.07;;;5.57;;
14276;SDS011;7222;57.346;12.150;2023-06-05T14:07:49;9.52;;;8.63;;
14276;SDS011;7222;57.346;12.150;2023-06-05T14:10:17;6.43;;;5.93;;
14276;SDS011;7222;57.346;12.150;2023-06-05T14:12:45;10.40;;;9.38;;
14276;SDS011;7222;57.346;12.150;2023-06-05T14:15:12;8.38;;;7.57;;
14276;SDS011;7222;57.346;12.150;2023-06-05T14:17:39;9.20;;;7.68;;
14276;SDS011;7222;57.346;12.150;2023-06-05T14:20:09;6.10;;;5.50;;
14276;SDS011;7222;57.346;12.150;2023-06-05T14:22:37;5.68;;;5.22;;
14276;SDS011;7222;57.346;12.150;2023-06-05T14:25:04;6.75;;;6.15;;
14276;SDS011;7222;57.346;12.150;2023-06-05T14:27:31;6.55;;;6.05;;
14276;SDS011;7222;57.346;12.150;2023-06-05T14:29:58;7.35;;;6.70;;
14276;SDS011;7222;57.346;12.150;2023-06-05T14:32:25;8.15;;;7.35;;
14276;SDS011;7222;57.346;12.150;2023-06-05T14:34:52;12.48;;;11.30;;
14276;SDS011;7222;57.346;12.150;2023-06-05T14:37:20;10.52;;;9.63;;
14276;SDS011;7222;57.346;12.150;2023-06-05T14:39:47;11.38;;;10.38;;
14276;SDS011;7222;57.346;12.150;2023-06-05T14:42:16;8.52;;;7.72;;
14276;SDS011;7222;57.346;12.150;2023-06-05T14:44:43;9.80;;;9.00;;
14276;SDS011;7222;57.346;12.150;2023-06-05T14:47:10;7.40;;;6.85;;
14276;SDS011;7222;57.346;12.150;2023-06-05T14:49:36;6.50;;;5.93;;
14276;SDS011;7222;57.346;12.150;2023-06-05T14:52:03;8.18;;;7.47;;
14276;SDS011;7222;57.346;12.150;2023-06-05T14:54:32;6.97;;;6.40;;
14276;SDS011;7222;57.346;12.150;2023-06-05T14:56:59;6.22;;;5.72;;
14276;SDS011;7222;57.346;12.150;2023-06-05T14:59:26;5.40;;;5.00;;
14276;SDS011;7222;57.346;12.150;2023-06-05T15:01:53;5.30;;;4.90;;